Martin, Kentucky
Current Conditions -  °F | °C
As of 5:15 PM on Thursday 23 Oct 2014 (Local Time) from KPBX Reporting Station
Clear Clear  
Wind Chill: 53°   Ceiling: Unl
Heat Index: 53°   Visibility: 10mi
Dew Point: 41°   Wind: 3mph
Humidity: 64%   Direction: 360°N
Pressure: 30.13"   Gusts: NA
Location:  37.57°N, 82.75°W
Report Text: KPBX 232115Z AUTO 36003KT 10SM CLR 12/05 A3013 RMK AO2 T01170050
Loading
Personal Weather Stations






























Interactive Weather Map
Tropical Storm Tracking
New forecast layout! Learn more

10-Day Weather Forecast

Advertisements
Track Severe Weather on mobile